createdAt,value
2017-11-16T00:01:55.344Z,101973.30
2017-11-16T00:04:21.137Z,101971.78
2017-11-16T00:06:46.906Z,101968.11
2017-11-16T00:09:12.742Z,101971.11
2017-11-16T00:11:38.516Z,101972.20
2017-11-16T00:14:04.328Z,101966.79
2017-11-16T00:16:30.121Z,101969.91
2017-11-16T00:18:56.252Z,101965.39
2017-11-16T00:21:22.903Z,101967.64
2017-11-16T00:23:48.698Z,101963.20
2017-11-16T00:26:14.603Z,101966.97
2017-11-16T00:28:40.459Z,101967.41
2017-11-16T00:31:06.235Z,101973.19
2017-11-16T00:33:32.009Z,101973.73
2017-11-16T00:35:57.820Z,101972.63
2017-11-16T00:38:23.594Z,101967.17
2017-11-16T00:40:49.371Z,101976.80
2017-11-16T00:43:15.178Z,101969.78
2017-11-16T00:45:40.983Z,101976.45
2017-11-16T00:48:06.770Z,101973.25
2017-11-16T00:50:32.598Z,101969.73
2017-11-16T00:52:58.377Z,101974.82
2017-11-16T00:55:24.171Z,101972.63
2017-11-16T00:57:50.379Z,101966.42
2017-11-16T01:00:16.183Z,101969.38
2017-11-16T01:02:41.981Z,101970.79
2017-11-16T01:05:07.797Z,101959.39
2017-11-16T01:07:33.589Z,101961.02
2017-11-16T01:09:59.473Z,101967.31
2017-11-16T01:12:25.364Z,101961.45
2017-11-16T01:14:51.159Z,101962.84
2017-11-16T01:17:16.941Z,101961.86
2017-11-16T01:19:43.053Z,101962.88
2017-11-16T01:22:08.832Z,101963.20
2017-11-16T01:24:34.623Z,101963.02
2017-11-16T01:27:00.431Z,101964.16
2017-11-16T01:29:26.215Z,101961.17
2017-11-16T01:31:51.996Z,101957.63
2017-11-16T01:34:17.987Z,101944.72
2017-11-16T01:36:44.403Z,101952.47
2017-11-16T01:39:10.176Z,101952.53
2017-11-16T01:41:35.972Z,101954.33
2017-11-16T01:44:01.791Z,101953.56
2017-11-16T01:46:27.578Z,101946.64
2017-11-16T01:48:53.373Z,101941.95
2017-11-16T01:51:19.202Z,101946.00
2017-11-16T01:53:44.989Z,101945.23
2017-11-16T01:56:10.798Z,101942.95
2017-11-16T01:58:36.600Z,101940.23
2017-11-16T02:01:02.438Z,101927.53
2017-11-16T02:03:28.267Z,101929.50
2017-11-16T02:05:54.046Z,101928.84
2017-11-16T02:08:19.857Z,101925.63
2017-11-16T02:10:45.692Z,101919.25
2017-11-16T02:13:11.476Z,101917.84
2017-11-16T02:15:37.253Z,101914.69
2017-11-16T02:18:03.062Z,101914.63
2017-11-16T02:20:28.888Z,101915.11
2017-11-16T02:22:55.042Z,101912.56
2017-11-16T02:25:20.847Z,101912.88
2017-11-16T02:27:46.650Z,101909.52
2017-11-16T02:30:12.446Z,101912.94
2017-11-16T02:32:38.227Z,101911.31
2017-11-16T02:35:04.039Z,101911.42
2017-11-16T02:37:29.849Z,101907.92
2017-11-16T02:39:55.683Z,101903.46
2017-11-16T02:42:21.523Z,101908.09
2017-11-16T02:44:47.359Z,101908.52
2017-11-16T02:47:13.177Z,101912.73
2017-11-16T02:49:38.964Z,101912.02
2017-11-16T02:52:04.829Z,101911.59
2017-11-16T02:54:30.663Z,101901.78
2017-11-16T02:56:56.448Z,101904.49
2017-11-16T02:59:22.276Z,101902.80
2017-11-16T03:01:48.088Z,101904.23
2017-11-16T03:04:13.892Z,101905.92
2017-11-16T03:06:39.696Z,101898.52
2017-11-16T03:09:05.497Z,101895.72
2017-11-16T03:11:31.295Z,101893.48
2017-11-16T03:13:57.115Z,101895.63
2017-11-16T03:16:22.908Z,101897.14
2017-11-16T03:18:48.712Z,101890.50
2017-11-16T03:21:14.887Z,101890.77
2017-11-16T03:23:40.692Z,101894.05
2017-11-16T03:26:06.504Z,101885.98
2017-11-16T03:28:32.331Z,101889.52
2017-11-16T03:30:58.269Z,101885.22
2017-11-16T03:33:24.092Z,101884.66
2017-11-16T03:35:49.884Z,101879.12
2017-11-16T03:38:15.654Z,101869.64
2017-11-16T03:40:41.464Z,101866.69
2017-11-16T03:43:07.250Z,101881.02
2017-11-16T03:45:33.054Z,101882.16
2017-11-16T03:47:58.860Z,101880.59
2017-11-16T03:50:24.640Z,101880.86
2017-11-16T03:52:50.452Z,101878.79
2017-11-16T03:55:16.266Z,101879.06
2017-11-16T03:57:42.073Z,101872.64
2017-11-16T04:00:07.876Z,101870.02
2017-11-16T04:02:33.654Z,101871.20
2017-11-16T04:04:59.420Z,101874.86
2017-11-16T04:07:25.192Z,101875.74
2017-11-16T04:09:51.068Z,101871.23
2017-11-16T04:12:16.861Z,101872.46
2017-11-16T04:14:42.640Z,101873.63
2017-11-16T04:17:08.430Z,101870.56
2017-11-16T04:19:34.230Z,101860.22
2017-11-16T04:22:00.020Z,101864.30
2017-11-16T04:24:25.864Z,101856.14
2017-11-16T04:26:51.680Z,101857.16
2017-11-16T04:29:17.479Z,101850.59
2017-11-16T04:31:43.264Z,101856.02
2017-11-16T04:34:09.044Z,101845.41
2017-11-16T04:36:34.841Z,101847.98
2017-11-16T04:39:00.629Z,101838.66
2017-11-16T04:41:26.422Z,101840.02
2017-11-16T04:43:52.222Z,101846.35
2017-11-16T04:46:18.009Z,101839.27
2017-11-16T04:48:43.798Z,101843.29
2017-11-16T04:51:09.943Z,101848.70
2017-11-16T04:53:35.718Z,101848.24
2017-11-16T04:56:01.510Z,101841.49
2017-11-16T04:58:27.716Z,101843.52
2017-11-16T05:00:53.889Z,101839.74
2017-11-16T05:03:19.694Z,101839.80
2017-11-16T05:05:45.528Z,101840.47
2017-11-16T05:08:11.297Z,101828.00
2017-11-16T05:10:37.115Z,101832.51
2017-11-16T05:13:02.895Z,101829.30
2017-11-16T05:15:28.687Z,101830.06
2017-11-16T05:17:54.464Z,101833.66
2017-11-16T05:20:20.263Z,101831.27
2017-11-16T05:22:46.041Z,101832.09
2017-11-16T05:25:11.851Z,101820.70
2017-11-16T05:27:38.044Z,101824.52
2017-11-16T05:30:03.837Z,101826.37
2017-11-16T05:32:29.622Z,101825.98
2017-11-16T05:34:55.437Z,101816.06
2017-11-16T05:37:21.228Z,101818.14
2017-11-16T05:39:47.016Z,101809.91
2017-11-16T05:42:12.823Z,101816.29
2017-11-16T05:44:38.600Z,101818.58
2017-11-16T05:47:04.401Z,101824.62
2017-11-16T05:49:30.198Z,101822.77
2017-11-16T05:51:55.988Z,101818.41
2017-11-16T05:54:21.771Z,101823.53
2017-11-16T05:56:47.582Z,101822.87
2017-11-16T05:59:13.383Z,101816.30
2017-11-16T06:01:39.188Z,101809.16
2017-11-16T06:04:05.004Z,101815.02
2017-11-16T06:06:30.821Z,101819.48
2017-11-16T06:08:56.608Z,101819.06
2017-11-16T06:11:22.417Z,101820.48
2017-11-16T06:13:48.204Z,101822.33
2017-11-16T06:16:13.968Z,101823.81
2017-11-16T06:18:39.745Z,101821.14
2017-11-16T06:21:05.528Z,101827.66
2017-11-16T06:23:31.343Z,101825.65
2017-11-16T06:25:57.127Z,101826.14
2017-11-16T06:28:23.016Z,101825.59
2017-11-16T06:30:48.824Z,101821.52
2017-11-16T06:33:14.601Z,101818.96
2017-11-16T06:35:40.385Z,101815.47
2017-11-16T06:38:06.441Z,101816.78
2017-11-16T06:40:32.256Z,101815.91
2017-11-16T06:42:58.045Z,101821.80
2017-11-16T06:45:23.832Z,101820.33
2017-11-16T06:47:49.628Z,101822.72
2017-11-16T06:50:15.401Z,101821.09
2017-11-16T06:52:41.239Z,101821.69
2017-11-16T06:55:07.028Z,101814.59
2017-11-16T06:57:32.828Z,101821.02
2017-11-16T06:59:58.899Z,101824.41
2017-11-16T07:02:24.669Z,101834.84
2017-11-16T07:04:50.435Z,101836.32
2017-11-16T07:07:16.250Z,101836.98
2017-11-16T07:09:42.037Z,101841.45
2017-11-16T07:12:07.820Z,101844.06
2017-11-16T07:14:33.673Z,101841.06
2017-11-16T07:16:59.429Z,101838.84
2017-11-16T07:19:25.233Z,101836.00
2017-11-16T07:21:51.060Z,101837.52
2017-11-16T07:24:16.850Z,101840.09
2017-11-16T07:26:42.676Z,101838.89
2017-11-16T07:29:08.453Z,101838.33
2017-11-16T07:31:34.238Z,101836.44
2017-11-16T07:34:00.044Z,101836.48
2017-11-16T07:36:25.854Z,101836.66
2017-11-16T07:38:52.402Z,101839.55
2017-11-16T07:41:19.307Z,101841.98
2017-11-16T07:43:45.518Z,101837.69
2017-11-16T07:46:12.254Z,101838.98
2017-11-16T07:48:38.362Z,101841.41
2017-11-16T07:51:04.462Z,101843.63
2017-11-16T07:53:31.065Z,101836.38
2017-11-16T07:55:57.366Z,101825.76
2017-11-16T07:58:23.858Z,101828.27
2017-11-16T08:00:51.284Z,101831.52
2017-11-16T08:03:18.037Z,101831.98
2017-11-16T08:05:44.831Z,101835.62
2017-11-16T08:08:11.250Z,101826.97
2017-11-16T08:10:38.106Z,101817.39
2017-11-16T08:13:05.348Z,101821.41
2017-11-16T08:15:31.651Z,101822.02
2017-11-16T08:17:58.607Z,101821.03
2017-11-16T08:20:25.282Z,101814.45
2017-11-16T08:22:51.305Z,101807.47
2017-11-16T08:25:17.817Z,101809.92
2017-11-16T08:27:43.674Z,101803.48
2017-11-16T08:30:09.505Z,101800.00
2017-11-16T08:32:35.510Z,101799.90
2017-11-16T08:35:01.644Z,101803.16
2017-11-16T08:37:27.691Z,101803.05
2017-11-16T08:39:54.857Z,101804.20
2017-11-16T08:42:20.973Z,101804.47
2017-11-16T08:44:46.803Z,101809.14
2017-11-16T08:47:12.748Z,101811.44
2017-11-16T08:49:39.239Z,101813.41
2017-11-16T08:52:05.673Z,101811.11
2017-11-16T08:54:31.868Z,101813.02
2017-11-16T08:56:57.685Z,101805.28
2017-11-16T08:59:23.546Z,101809.08
2017-11-16T09:01:50.298Z,101806.80
2017-11-16T09:04:16.139Z,101806.25
2017-11-16T09:06:42.396Z,101815.25
2017-11-16T09:09:08.249Z,101811.38
2017-11-16T09:11:34.666Z,101819.54
2017-11-16T09:14:00.949Z,101812.52
2017-11-16T09:16:27.553Z,101813.02
2017-11-16T09:18:53.357Z,101801.40
2017-11-16T09:21:19.169Z,101807.22
2017-11-16T09:23:45.280Z,101812.95
2017-11-16T09:26:11.122Z,101807.77
2017-11-16T09:28:36.947Z,101808.97
2017-11-16T09:31:02.757Z,101813.11
2017-11-16T09:33:28.572Z,101808.27
2017-11-16T09:35:54.751Z,101810.34
2017-11-16T09:38:20.683Z,101814.19
2017-11-16T09:40:47.217Z,101808.59
2017-11-16T09:43:16.810Z,101811.30
2017-11-16T09:45:43.537Z,101813.00
2017-11-16T09:48:09.340Z,101813.31
2017-11-16T09:50:35.136Z,101814.85
2017-11-16T09:53:01.340Z,101817.08
2017-11-16T09:55:27.144Z,101815.00
2017-11-16T09:57:52.977Z,101813.26
2017-11-16T10:00:20.111Z,101814.39
2017-11-16T10:02:47.544Z,101806.67
2017-11-16T10:05:13.341Z,101808.68
2017-11-16T10:07:39.499Z,101803.30
2017-11-16T10:10:05.441Z,101803.95
2017-11-16T10:12:32.833Z,101800.64
2017-11-16T10:15:01.087Z,101794.41
2017-11-16T10:17:26.890Z,101785.81
2017-11-16T10:19:52.684Z,101781.33
2017-11-16T10:22:19.505Z,101778.41
2017-11-16T10:24:45.384Z,101776.75
2017-11-16T10:27:11.245Z,101774.53
2017-11-16T10:29:37.388Z,101772.27
2017-11-16T10:32:03.182Z,101768.97
2017-11-16T10:34:28.965Z,101764.77
2017-11-16T10:36:54.794Z,101758.77
2017-11-16T10:39:20.591Z,101758.27
2017-11-16T10:41:46.523Z,101759.23
2017-11-16T10:44:13.057Z,101755.77
2017-11-16T10:46:39.917Z,101754.77
2017-11-16T10:49:06.805Z,101752.27
2017-11-16T10:51:33.251Z,101748.22
2017-11-16T10:54:00.689Z,101737.83
2017-11-16T10:56:26.996Z,101732.59
2017-11-16T10:58:54.363Z,101733.11
2017-11-16T11:01:20.712Z,101735.14
2017-11-16T11:03:48.370Z,101725.88
2017-11-16T11:06:15.149Z,101729.52
2017-11-16T11:11:32.307Z,101716.17
2017-11-16T11:16:31.832Z,101632.80
2017-11-16T11:18:58.314Z,101708.34
2017-11-16T11:21:24.324Z,101711.91
2017-11-16T11:23:50.191Z,101715.34
2017-11-16T11:26:16.336Z,101698.30
2017-11-16T11:28:43.420Z,101708.30
2017-11-16T11:31:10.464Z,101712.52
2017-11-16T11:33:36.370Z,101708.56
2017-11-16T11:36:02.299Z,101705.81
2017-11-16T11:38:29.682Z,101701.06
2017-11-16T11:40:56.932Z,101698.17
2017-11-16T11:43:23.362Z,101700.43
2017-11-16T11:45:50.534Z,101696.06
2017-11-16T11:48:20.165Z,101690.21
2017-11-16T11:50:46.143Z,101697.66
2017-11-16T11:53:12.831Z,101688.98
2017-11-16T11:55:39.353Z,101688.23
2017-11-16T11:58:05.258Z,101688.40
2017-11-16T12:00:31.887Z,101690.59
2017-11-16T12:02:57.826Z,101691.86
2017-11-16T12:05:24.753Z,101690.14
2017-11-16T12:07:50.609Z,101691.52
2017-11-16T12:10:16.615Z,101684.04
2017-11-16T12:12:42.887Z,101679.78
2017-11-16T12:15:09.489Z,101685.32
2017-11-16T12:17:35.325Z,101679.97
2017-11-16T12:20:01.362Z,101677.92
2017-11-16T12:22:29.111Z,101671.84
2017-11-16T12:24:55.557Z,101679.27
2017-11-16T12:27:21.538Z,101684.59
2017-11-16T12:29:52.622Z,101682.15
2017-11-16T12:32:19.681Z,101682.03
2017-11-16T12:34:48.623Z,101688.03
2017-11-16T12:37:17.429Z,101689.92
2017-11-16T12:39:44.554Z,101684.09
2017-11-16T12:53:09.284Z,101667.94
2017-11-16T12:55:35.281Z,101665.17
2017-11-16T12:58:01.134Z,101668.11
2017-11-16T13:00:27.547Z,101665.67
2017-11-16T13:02:53.403Z,101658.19
2017-11-16T13:05:19.563Z,101655.45
2017-11-16T13:07:45.883Z,101651.55
2017-11-16T13:10:12.680Z,101646.38
2017-11-16T13:12:38.523Z,101648.06
2017-11-16T13:15:04.959Z,101648.15
2017-11-16T13:17:31.016Z,101642.55
2017-11-16T13:19:56.830Z,101636.48
2017-11-16T13:22:22.796Z,101635.58
2017-11-16T13:24:49.283Z,101631.27
2017-11-16T13:27:15.065Z,101639.21
2017-11-16T13:29:41.438Z,101629.11
2017-11-16T13:32:07.958Z,101629.11
2017-11-16T13:34:33.737Z,101621.11
2017-11-16T13:36:59.860Z,101619.25
2017-11-16T13:39:25.680Z,101606.73
2017-11-16T13:41:52.338Z,101610.17
2017-11-16T13:44:19.189Z,101597.56
2017-11-16T13:46:45.426Z,101605.33
2017-11-16T13:49:11.398Z,101599.25
2017-11-16T13:51:37.300Z,101591.19
2017-11-16T13:54:03.681Z,101591.48
2017-11-16T13:56:30.476Z,101585.16
2017-11-16T13:58:57.020Z,101582.63
2017-11-16T14:01:25.558Z,101580.37
2017-11-16T14:03:51.736Z,101587.64
2017-11-16T14:06:17.597Z,101585.28
2017-11-16T14:08:51.080Z,101589.47
2017-11-16T14:11:17.964Z,101585.72
2017-11-16T14:13:44.725Z,101583.34
2017-11-16T14:16:11.391Z,101578.16
2017-11-16T14:18:38.428Z,101579.02
2017-11-16T14:21:05.148Z,101581.24
2017-11-16T14:23:31.558Z,101582.72
2017-11-16T14:25:58.226Z,101583.72
2017-11-16T14:28:25.047Z,101587.73
2017-11-16T14:30:52.388Z,101574.23
2017-11-16T14:33:19.025Z,101575.22
2017-11-16T14:35:45.600Z,101578.77
2017-11-16T14:38:11.570Z,101574.14
2017-11-16T14:40:37.418Z,101575.07
2017-11-16T14:43:03.579Z,101571.70
2017-11-16T14:45:29.553Z,101578.22
2017-11-16T14:47:55.357Z,101570.19
2017-11-16T14:50:21.145Z,101572.97
2017-11-16T14:52:46.929Z,101574.58
2017-11-16T14:55:12.862Z,101573.44
2017-11-16T14:57:38.659Z,101566.87
2017-11-16T15:00:04.486Z,101570.62
2017-11-16T15:02:30.326Z,101569.75
2017-11-16T15:04:56.099Z,101568.27
2017-11-16T15:07:21.907Z,101565.81
2017-11-16T15:09:47.728Z,101559.77
2017-11-16T15:12:13.513Z,101559.00
2017-11-16T15:14:39.292Z,101559.27
2017-11-16T15:17:05.103Z,101557.64
2017-11-16T15:19:30.890Z,101561.45
2017-11-16T15:21:56.667Z,101561.57
2017-11-16T15:24:22.469Z,101557.03
2017-11-16T15:26:48.257Z,101557.00
2017-11-16T15:29:14.072Z,101560.96
2017-11-16T15:31:39.887Z,101565.64
2017-11-16T15:34:05.688Z,101562.27
2017-11-16T15:36:31.482Z,101557.75
2017-11-16T15:38:57.292Z,101548.21
2017-11-16T15:41:23.085Z,101545.95
2017-11-16T15:43:48.870Z,101549.75
2017-11-16T15:46:14.668Z,101544.20
2017-11-16T15:48:40.466Z,101541.98
2017-11-16T15:51:06.478Z,101540.94
2017-11-16T15:53:32.488Z,101539.81
2017-11-16T15:55:58.279Z,101534.70
2017-11-16T15:58:24.100Z,101532.76
2017-11-16T16:00:49.937Z,101534.77
2017-11-16T16:03:15.745Z,101528.17
2017-11-16T16:05:41.526Z,101535.93
2017-11-16T16:08:07.312Z,101524.42
2017-11-16T16:10:33.097Z,101521.73
2017-11-16T16:12:58.910Z,101522.37
2017-11-16T16:15:24.725Z,101521.03
2017-11-16T16:17:50.515Z,101519.05
2017-11-16T16:20:16.323Z,101513.38
2017-11-16T16:22:42.096Z,101506.28
2017-11-16T16:25:07.864Z,101514.05
2017-11-16T16:27:33.693Z,101517.73
2017-11-16T16:29:59.500Z,101513.25
2017-11-16T16:32:25.300Z,101518.17
2017-11-16T16:34:51.113Z,101519.61
2017-11-16T16:37:16.908Z,101517.73
2017-11-16T16:39:42.696Z,101506.97
2017-11-16T16:42:08.487Z,101507.12
2017-11-16T16:44:34.262Z,101492.02
2017-11-16T16:47:00.228Z,101510.42
2017-11-16T16:49:26.039Z,101503.97
2017-11-16T16:51:51.853Z,101510.29
2017-11-16T16:54:17.665Z,101502.98
2017-11-16T16:56:43.453Z,101510.88
2017-11-16T16:59:09.245Z,101502.98
2017-11-16T17:01:35.072Z,101499.66
2017-11-16T17:04:00.856Z,101502.72
2017-11-16T17:06:26.630Z,101509.73
2017-11-16T17:08:52.452Z,101510.48
2017-11-16T17:11:18.277Z,101492.21
2017-11-16T17:13:44.058Z,101495.09
2017-11-16T17:16:09.860Z,101497.67
2017-11-16T17:18:35.653Z,101497.58
2017-11-16T17:21:01.455Z,101503.84
2017-11-16T17:23:27.247Z,101505.73
2017-11-16T17:25:53.031Z,101508.30
2017-11-16T17:28:19.200Z,101504.37
2017-11-16T17:30:44.992Z,101505.80
2017-11-16T17:33:10.786Z,101513.30
2017-11-16T17:35:36.600Z,101510.10
2017-11-16T17:38:02.393Z,101509.61
2017-11-16T17:40:28.180Z,101507.74
2017-11-16T17:42:53.984Z,101508.28
2017-11-16T17:45:19.803Z,101507.56
2017-11-16T17:47:45.589Z,101503.17
2017-11-16T17:50:11.670Z,101507.69
2017-11-16T17:52:37.449Z,101508.23
2017-11-16T17:55:03.240Z,101515.23
2017-11-16T17:57:29.023Z,101509.81
2017-11-16T17:59:54.793Z,101507.73
2017-11-16T18:02:20.585Z,101505.36
2017-11-16T18:04:46.379Z,101501.92
2017-11-16T18:07:12.169Z,101499.55
2017-11-16T18:09:38.125Z,101500.78
2017-11-16T18:12:03.936Z,101500.62
2017-11-16T18:14:29.737Z,101496.05
2017-11-16T18:16:55.551Z,101488.28
2017-11-16T18:19:21.337Z,101490.77
2017-11-16T18:21:47.120Z,101491.09
2017-11-16T18:24:12.940Z,101490.61
2017-11-16T18:26:38.728Z,101492.53
2017-11-16T18:29:04.518Z,101478.95
2017-11-16T18:31:30.481Z,101482.02
2017-11-16T18:33:56.276Z,101483.70
2017-11-16T18:36:22.056Z,101483.97
2017-11-16T18:38:47.860Z,101483.00
2017-11-16T18:41:13.636Z,101482.39
2017-11-16T18:43:39.404Z,101484.02
2017-11-16T18:46:05.248Z,101475.95
2017-11-16T18:48:31.039Z,101467.95
2017-11-16T18:50:56.889Z,101474.77
2017-11-16T18:53:22.705Z,101468.89
2017-11-16T18:55:48.491Z,101450.09
2017-11-16T18:58:14.293Z,101480.58
2017-11-16T19:00:40.108Z,101484.00
2017-11-16T19:03:05.903Z,101487.02
2017-11-16T19:05:31.701Z,101484.02
2017-11-16T19:07:57.481Z,101486.63
2017-11-16T19:10:23.255Z,101487.76
2017-11-16T19:12:49.093Z,101483.22
2017-11-16T19:15:14.880Z,101479.08
2017-11-16T19:17:40.704Z,101476.44
2017-11-16T19:20:06.509Z,101472.83
2017-11-16T19:22:32.288Z,101478.95
2017-11-16T19:24:58.105Z,101473.55
2017-11-16T19:27:24.097Z,101464.10
2017-11-16T19:29:49.911Z,101473.95
2017-11-16T19:32:15.706Z,101485.02
2017-11-16T19:34:41.530Z,101491.66
2017-11-16T19:37:07.328Z,101490.46
2017-11-16T19:39:33.172Z,101491.22
2017-11-16T19:41:59.026Z,101478.51
2017-11-16T19:44:24.812Z,101482.26
2017-11-16T19:46:50.955Z,101489.78
2017-11-16T19:49:16.747Z,101490.77
2017-11-16T19:51:42.543Z,101490.08
2017-11-16T19:54:08.525Z,101490.78
2017-11-16T19:56:34.426Z,101489.39
2017-11-16T19:59:00.211Z,101491.47
2017-11-16T20:01:26.049Z,101493.52
2017-11-16T20:03:51.882Z,101487.66
2017-11-16T20:06:17.706Z,101489.64
2017-11-16T20:08:43.513Z,101494.53
2017-11-16T20:11:09.362Z,101489.97
2017-11-16T20:13:35.145Z,101492.78
2017-11-16T20:16:00.927Z,101502.73
2017-11-16T20:18:26.724Z,101496.16
2017-11-16T20:20:52.550Z,101489.34
2017-11-16T20:23:18.341Z,101493.21
2017-11-16T20:25:44.335Z,101497.55
2017-11-16T20:28:10.158Z,101489.89
2017-11-16T20:30:35.957Z,101488.14
2017-11-16T20:33:01.740Z,101495.92
2017-11-16T20:35:27.549Z,101491.60
2017-11-16T20:37:55.369Z,101488.84
2017-11-16T20:40:27.331Z,101488.78
2017-11-16T20:48:55.623Z,101496.61
2017-11-16T20:51:23.292Z,101492.47
2017-11-16T20:53:51.915Z,101489.41
2017-11-16T20:56:17.751Z,101484.02
2017-11-16T20:58:43.558Z,101479.02
2017-11-16T21:01:09.376Z,101485.51
2017-11-16T21:03:35.189Z,101478.27
2017-11-16T21:06:00.978Z,101487.53
2017-11-16T21:08:26.765Z,101472.38
2017-11-16T21:10:53.672Z,101482.08
2017-11-16T21:13:19.477Z,101474.69
2017-11-16T21:15:45.260Z,101473.08
2017-11-16T21:18:11.047Z,101470.32
2017-11-16T21:20:36.848Z,101471.81
2017-11-16T21:23:02.663Z,101471.44
2017-11-16T21:25:28.453Z,101472.95
2017-11-16T21:27:54.241Z,101473.30
2017-11-16T21:30:20.049Z,101476.76
2017-11-16T21:32:45.844Z,101470.06
2017-11-16T21:35:11.835Z,101477.88
2017-11-16T21:37:37.620Z,101479.55
2017-11-16T21:40:03.408Z,101473.50
2017-11-16T21:42:29.530Z,101480.89
2017-11-16T21:44:55.301Z,101474.92
2017-11-16T21:47:21.101Z,101479.38
2017-11-16T21:49:46.891Z,101479.38
2017-11-16T21:52:12.664Z,101479.88
2017-11-16T21:54:38.794Z,101490.41
2017-11-16T21:57:04.587Z,101497.65
2017-11-16T21:59:30.372Z,101494.11
2017-11-16T22:01:56.186Z,101497.42
2017-11-16T22:04:21.980Z,101496.16
2017-11-16T22:06:47.760Z,101497.66
2017-11-16T22:09:13.804Z,101494.32
2017-11-16T22:11:39.814Z,101506.28
2017-11-16T22:14:05.609Z,101511.67
2017-11-16T22:16:31.395Z,101511.12
2017-11-16T22:18:57.176Z,101515.86
2017-11-16T22:21:22.992Z,101517.23
2017-11-16T22:23:48.785Z,101515.80
2017-11-16T22:26:14.566Z,101525.01
2017-11-16T22:28:40.372Z,101531.27
2017-11-16T22:31:06.175Z,101536.11
2017-11-16T22:33:31.955Z,101537.36
2017-11-16T22:35:57.768Z,101546.13
2017-11-16T22:38:23.552Z,101545.31
2017-11-16T22:40:49.342Z,101542.73
2017-11-16T22:43:15.141Z,101554.81
2017-11-16T22:45:40.912Z,101559.31
2017-11-16T22:48:06.684Z,101556.63
2017-11-16T22:50:32.476Z,101564.31
2017-11-16T22:52:58.258Z,101564.08
2017-11-16T22:55:24.053Z,101564.58
2017-11-16T22:57:49.860Z,101565.78
2017-11-16T23:00:15.660Z,101572.61
2017-11-16T23:02:41.437Z,101573.80
2017-11-16T23:05:07.228Z,101574.68
2017-11-16T23:07:33.001Z,101570.21
2017-11-16T23:09:58.780Z,101576.43
2017-11-16T23:12:25.081Z,101580.61
2017-11-16T23:14:50.865Z,101579.19
2017-11-16T23:17:16.647Z,101579.34
2017-11-16T23:19:43.352Z,101580.91
2017-11-16T23:22:09.131Z,101590.39
2017-11-16T23:24:34.923Z,101591.76
2017-11-16T23:27:00.736Z,101581.86
2017-11-16T23:29:26.511Z,101590.08
2017-11-16T23:31:52.287Z,101604.09
2017-11-16T23:34:18.259Z,101601.77
2017-11-16T23:36:44.052Z,101606.29
2017-11-16T23:39:09.835Z,101605.64
2017-11-16T23:41:35.628Z,101613.41
2017-11-16T23:44:01.408Z,101614.89
2017-11-16T23:46:27.183Z,101614.56
2017-11-16T23:48:52.998Z,101618.94
2017-11-16T23:51:18.792Z,101615.36
2017-11-16T23:53:44.573Z,101620.90
2017-11-16T23:56:10.373Z,101626.22
2017-11-16T23:58:36.156Z,101627.59
